Time;durP1;ratioP1;P1;durP2;ratioP2;P2;SDS_P1;SDS_P2;PMS_P1;PMS_P2;Temp;Humidity;BMP_temperature;BMP_pressure;BME280_temperature;BME280_humidity;BME280_pressure;Samples;Min_cycle;Max_cycle;Signal;HPM_P1;HPM_P2
2023/08/12 17:56:49;;;;;;;;;;;21.50;79.80;;;;;;5074283;28;19970;-94
2023/08/12 17:59:14;;;;;;;;;;;21.20;81.70;;;;;;5057689;28;19912;-95
2023/08/12 18:01:40;;;;;;;;;;;21.20;82.20;;;;;;5058307;28;19954;-94
2023/08/12 18:04:05;;;;;;;;;;;21.20;83.10;;;;;;5045572;28;19910;-94
2023/08/12 18:06:31;;;;;;;;;;;21.20;83.80;;;;;;5042320;28;19921;-94
2023/08/12 18:08:57;;;;;;;;;;;21.20;84.30;;;;;;5052022;28;19940;-94
2023/08/12 18:11:22;;;;;;;;;;;21.20;84.80;;;;;;5057318;28;20421;-94
2023/08/12 18:13:48;;;;;;;;;;;21.20;85.30;;;;;;5056902;28;19972;-93
2023/08/12 18:16:13;;;;;;;;;;;21.20;85.60;;;;;;5057135;28;20007;-94
2023/08/12 18:18:39;;;;;;;;;;;21.20;85.90;;;;;;5036987;28;19913;-95
2023/08/12 18:21:04;;;;;;;;;;;21.20;86.20;;;;;;5037037;28;19913;-96
2023/08/12 18:23:30;;;;;;;;;;;21.20;86.50;;;;;;5036057;28;20314;-94
2023/08/12 18:25:59;;;;;;;;;;;21.20;86.70;;;;;;5036013;28;19917;-94
2023/08/12 18:28:24;;;;;;;;;;;21.20;86.90;;;;;;5040854;28;20329;-94
2023/08/12 18:30:51;;;;;;;;;;;21.10;87.10;;;;;;5072826;28;19909;-94
2023/08/12 18:33:17;;;;;;;;;;;21.10;87.30;;;;;;5038565;28;19909;-94
2023/08/12 18:35:43;;;;;;;;;;;21.10;87.50;;;;;;5035086;28;19909;-96
2023/08/12 18:38:08;;;;;;;;;;;21.10;87.60;;;;;;5048476;28;19962;-95
2023/08/12 18:40:34;;;;;;;;;;;21.00;87.80;;;;;;5039684;28;19948;-93
2023/08/12 18:43:01;;;;;;;;;;;21.00;87.90;;;;;;5035754;28;19916;-94
2023/08/12 18:45:27;;;;;;;;;;;21.00;88.80;;;;;;5037122;28;19916;-95
2023/08/12 18:47:54;;;;;;;;;;;20.90;88.30;;;;;;5034284;28;19909;-93
2023/08/12 18:50:20;;;;;;;;;;;20.90;88.50;;;;;;5035141;28;20429;-94
2023/08/12 18:52:45;;;;;;;;;;;20.90;88.60;;;;;;5035071;28;19948;-93
2023/08/12 18:55:11;;;;;;;;;;;20.80;88.80;;;;;;5034345;28;19925;-95
2023/08/12 18:57:37;;;;;;;;;;;20.80;88.90;;;;;;5038880;28;19915;-94
2023/08/12 19:00:04;;;;;;;;;;;20.70;89.10;;;;;;5053556;28;20349;-95
2023/08/12 19:02:29;;;;;;;;;;;20.70;89.20;;;;;;5052728;28;19966;-94
2023/08/12 19:04:55;;;;;;;;;;;20.60;89.30;;;;;;5055127;28;20319;-94
2023/08/12 19:07:20;;;;;;;;;;;20.60;89.40;;;;;;5035612;28;19913;-95
2023/08/12 19:09:46;;;;;;;;;;;20.60;89.60;;;;;;5039767;28;19909;-94
2023/08/12 19:12:11;;;;;;;;;;;20.50;89.80;;;;;;5033413;28;19909;-96
2023/08/12 19:14:37;;;;;;;;;;;20.50;90.00;;;;;;5041096;28;20362;-94
2023/08/12 19:17:03;;;;;;;;;;;20.40;90.10;;;;;;5040554;28;19976;-94
2023/08/12 19:19:28;;;;;;;;;;;20.40;90.20;;;;;;5040268;28;19914;-94
2023/08/12 19:21:54;;;;;;;;;;;20.30;90.30;;;;;;5041287;28;19962;-94
2023/08/12 19:24:19;;;;;;;;;;;20.30;90.40;;;;;;5041531;28;19963;-94
2023/08/12 19:26:45;;;;;;;;;;;20.30;90.50;;;;;;5030240;28;19955;-93
2023/08/12 19:29:10;;;;;;;;;;;20.20;90.60;;;;;;5021085;28;19916;-94
2023/08/12 19:31:36;;;;;;;;;;;20.20;90.70;;;;;;5020940;28;19913;-95
2023/08/12 19:34:01;;;;;;;;;;;20.10;90.70;;;;;;5021005;28;19909;-94
2023/08/12 19:36:27;;;;;;;;;;;20.10;90.80;;;;;;5022223;28;19909;-96
2023/08/12 19:38:52;;;;;;;;;;;20.00;90.90;;;;;;5020176;28;19909;-94
2023/08/12 19:41:18;;;;;;;;;;;20.00;91.00;;;;;;5021159;28;19924;-95
2023/08/12 19:43:44;;;;;;;;;;;20.00;91.10;;;;;;5030538;28;20277;-94
2023/08/12 19:46:09;;;;;;;;;;;20.00;91.10;;;;;;5039965;28;19913;-94
2023/08/12 19:48:35;;;;;;;;;;;19.90;91.20;;;;;;5040180;28;20316;-94
2023/08/12 19:51:01;;;;;;;;;;;19.90;91.20;;;;;;5039573;28;19956;-95
2023/08/12 19:53:26;;;;;;;;;;;19.90;91.30;;;;;;5039749;28;19913;-94
2023/08/12 19:55:53;;;;;;;;;;;19.90;91.30;;;;;;5039740;28;19925;-95
2023/08/12 19:58:18;;;;;;;;;;;19.90;91.40;;;;;;5040024;28;20273;-93
2023/08/12 20:00:44;;;;;;;;;;;19.80;91.40;;;;;;5043878;28;19909;-93
